Bethany, Kentucky
Current Conditions -  °F | °C
As of 7:53 PM on Wednesday 22 Oct 2014 (Local Time) from KJKL Reporting Station
Overcast Overcast  
Wind Chill: 48°   Ceiling: 3200
Heat Index: 48°   Visibility: 10mi
Dew Point: 41°   Wind: 0mph
Humidity: 77%   Direction: NA
Pressure: 30.24"   Gusts: NA
Location:  37.65°N, 83.47°W
Report Text: KJKL 222353Z AUTO 00000KT 10SM OVC032 09/05 A3024 RMK AO2 SLP241 T00890050 10100 20089 53001
Loading
Personal Weather Stations






























Interactive Weather Map
Tropical Storm Tracking
New forecast layout! Learn more

10-Day Weather Forecast

Advertisements
Track Severe Weather on mobile